createdAt,value
2023-03-06T00:07:26.715Z,18.47
2023-03-06T00:17:31.251Z,20.43
2023-03-06T00:27:34.936Z,19.30
2023-03-06T00:37:39.805Z,21.43
2023-03-06T00:47:43.131Z,23.23
2023-03-06T00:57:47.705Z,21.57
2023-03-06T01:07:50.894Z,23.13
2023-03-06T01:17:56.979Z,21.57
2023-03-06T01:28:00.146Z,22.10
2023-03-06T01:38:04.718Z,21.57
2023-03-06T01:48:08.080Z,21.73
2023-03-06T01:58:19.301Z,21.57
2023-03-06T02:08:24.214Z,22.17
2023-03-06T02:18:29.536Z,19.43
2023-03-06T02:28:34.201Z,20.07
2023-03-06T02:38:42.131Z,21.13
2023-03-06T02:48:46.744Z,22.17
2023-03-06T02:58:50.157Z,22.77
2023-03-06T03:08:54.867Z,22.93
2023-03-06T03:18:59.028Z,23.37
2023-03-06T03:29:05.419Z,22.17
2023-03-06T03:39:08.925Z,22.67
2023-03-06T03:49:13.904Z,23.17
2023-03-06T03:59:17.229Z,22.27
2023-03-06T04:09:32.939Z,21.97
2023-03-06T04:19:36.294Z,22.00
2023-03-06T04:29:40.914Z,22.80
2023-03-06T04:39:44.290Z,22.07
2023-03-06T04:49:48.882Z,22.77
2023-03-06T04:59:52.192Z,22.10
2023-03-06T05:09:56.890Z,22.83
2023-03-06T05:20:00.246Z,22.77
2023-03-06T05:30:05.646Z,21.73
2023-03-06T05:40:10.686Z,23.33
2023-03-06T05:50:15.306Z,22.57
2023-03-06T06:00:20.220Z,23.17
2023-03-06T06:10:24.827Z,22.93
2023-03-06T06:20:28.565Z,22.73
2023-03-06T06:30:33.524Z,23.20
2023-03-06T06:40:36.785Z,23.67
2023-03-06T06:50:41.383Z,23.33
2023-03-06T07:00:44.576Z,23.43
2023-03-06T07:10:49.110Z,22.43
2023-03-06T07:20:53.942Z,23.03
2023-03-06T07:30:58.517Z,22.33
2023-03-06T07:41:01.776Z,23.30
2023-03-06T07:51:08.817Z,23.30
2023-03-06T08:01:13.979Z,24.33
2023-03-06T08:11:22.314Z,23.47
2023-03-06T08:21:27.008Z,23.13
2023-03-06T08:31:33.955Z,22.90
2023-03-06T08:41:38.208Z,21.97
2023-03-06T08:51:43.032Z,23.80
2023-03-06T09:01:46.687Z,23.40
2023-03-06T09:11:53.629Z,24.87
2023-03-06T09:21:57.798Z,22.07
2023-03-06T09:32:02.465Z,22.30
2023-03-06T09:42:08.449Z,21.83
2023-03-06T09:52:32.574Z,22.60
2023-03-06T10:02:41.357Z,21.60
2023-03-06T10:12:51.597Z,18.97
2023-03-06T10:23:12.047Z,21.43
2023-03-06T10:33:29.789Z,18.83
2023-03-06T10:43:35.804Z,19.57
2023-03-06T10:53:51.492Z,18.53
2023-03-06T11:03:54.693Z,18.93
2023-03-06T11:14:00.555Z,15.97
2023-03-06T11:24:06.848Z,17.50
2023-03-06T11:34:21.968Z,11.67
2023-03-06T11:44:31.878Z,11.20
2023-03-06T11:54:37.301Z,15.93
2023-03-06T12:04:50.969Z,9.47
2023-03-06T12:15:07.864Z,10.07
2023-03-06T12:25:38.123Z,10.17
2023-03-06T12:35:57.357Z,9.90
2023-03-06T12:46:04.716Z,9.60
2023-03-06T12:56:10.419Z,9.10
2023-03-06T13:06:34.117Z,7.63
2023-03-06T13:16:41.145Z,7.53
2023-03-06T13:27:07.306Z,7.40
2023-03-06T13:37:53.132Z,8.03
2023-03-06T13:48:24.597Z,7.20
2023-03-06T13:58:39.765Z,6.77
2023-03-06T14:08:45.722Z,7.13
2023-03-06T14:18:50.812Z,6.87
2023-03-06T14:28:58.759Z,6.37
2023-03-06T14:39:04.606Z,6.57
2023-03-06T14:49:10.690Z,6.67
2023-03-06T14:59:16.994Z,6.90
2023-03-06T15:09:26.133Z,6.10
2023-03-06T15:19:29.355Z,6.50
2023-03-06T15:29:34.795Z,6.17
2023-03-06T15:39:39.711Z,5.93
2023-03-06T15:49:44.301Z,6.27
2023-03-06T15:59:47.773Z,6.40
2023-03-06T16:09:52.379Z,7.03
2023-03-06T16:19:55.638Z,6.67
2023-03-06T16:30:00.226Z,6.10
2023-03-06T16:40:06.875Z,6.43
2023-03-06T16:50:22.879Z,7.47
2023-03-06T17:00:30.864Z,6.53
2023-03-06T17:10:35.956Z,7.67
2023-03-06T17:20:39.203Z,8.07
2023-03-06T17:30:43.733Z,8.27
2023-03-06T17:40:46.929Z,8.10
2023-03-06T17:50:55.850Z,9.17
2023-03-06T18:00:59.719Z,7.97
2023-03-06T18:11:06.398Z,8.47
2023-03-06T18:21:12.084Z,7.80
2023-03-06T18:31:18.033Z,8.53
2023-03-06T18:41:22.221Z,8.90
2023-03-06T18:51:27.400Z,8.20
2023-03-06T19:01:31.417Z,8.43
2023-03-06T19:11:36.121Z,8.60
2023-03-06T19:21:39.370Z,7.70
2023-03-06T19:31:44.111Z,8.07
2023-03-06T19:41:48.392Z,7.60
2023-03-06T19:51:52.961Z,8.07
2023-03-06T20:01:56.252Z,8.10
2023-03-06T20:12:01.535Z,8.43
2023-03-06T20:22:05.103Z,8.20
2023-03-06T20:32:09.800Z,8.60
2023-03-06T20:42:12.966Z,8.50
2023-03-06T20:52:17.636Z,9.00
2023-03-06T21:02:21.911Z,8.80
2023-03-06T21:12:26.555Z,8.50
2023-03-06T21:22:30.283Z,9.47
2023-03-06T21:32:34.921Z,8.93
2023-03-06T21:42:38.211Z,8.93
2023-03-06T21:52:42.817Z,9.10
2023-03-06T22:02:47.739Z,9.67
2023-03-06T22:12:52.306Z,9.17
2023-03-06T22:22:55.499Z,8.60
2023-03-06T22:33:00.114Z,9.00
2023-03-06T22:43:03.324Z,9.17
2023-03-06T22:53:08.066Z,8.90
2023-03-06T23:03:11.319Z,8.97
2023-03-06T23:13:15.897Z,8.97
2023-03-06T23:23:38.881Z,9.03
2023-03-06T23:33:43.505Z,8.90
2023-03-06T23:43:46.778Z,9.10
2023-03-06T23:53:56.148Z,9.87
